Time;durP1;ratioP1;P1;durP2;ratioP2;P2;SDS_P1;SDS_P2;PMS_P1;PMS_P2;Temp;Humidity;BMP_temperature;BMP_pressure;BME280_temperature;BME280_humidity;BME280_pressure;Samples;Min_cycle;Max_cycle;Signal;HPM_P1;HPM_P2
2023/08/23 00:01:51;;;;;;;5.03;3.03;;;14.80;99.90;;;;;;5033654;28;20041;-65
2023/08/23 00:04:19;;;;;;;5.68;3.30;;;14.70;99.90;;;;;;5041680;28;20119;-65
2023/08/23 00:06:45;;;;;;;5.78;3.17;;;14.60;99.90;;;;;;5045724;28;20041;-65
2023/08/23 00:09:10;;;;;;;6.32;3.05;;;14.60;99.90;;;;;;5050877;28;20033;-65
2023/08/23 00:11:36;;;;;;;4.38;2.70;;;14.50;99.90;;;;;;5031440;28;20033;-65
2023/08/23 00:14:02;;;;;;;4.75;3.20;;;14.50;99.90;;;;;;5044181;28;20040;-65
2023/08/23 00:16:28;;;;;;;5.60;3.40;;;14.40;99.90;;;;;;5047695;28;20045;-65
2023/08/23 00:18:53;;;;;;;6.50;3.45;;;14.40;99.90;;;;;;5034727;28;20470;-65
2023/08/23 00:21:19;;;;;;;6.38;3.30;;;14.30;99.90;;;;;;5045758;28;20465;-65
2023/08/23 00:23:44;;;;;;;4.15;3.33;;;14.30;99.90;;;;;;5028761;28;20064;-65
2023/08/23 00:26:13;;;;;;;4.75;3.13;;;14.30;99.90;;;;;;5041648;28;20124;-65
2023/08/23 00:28:39;;;;;;;5.63;3.33;;;14.30;99.90;;;;;;5034987;28;20128;-64
2023/08/23 00:31:05;;;;;;;5.80;3.95;;;14.30;99.90;;;;;;5040366;28;20092;-65
2023/08/23 00:33:30;;;;;;;5.18;3.38;;;14.30;99.90;;;;;;5039108;28;20088;-66
2023/08/23 00:35:56;;;;;;;4.07;3.10;;;14.30;99.90;;;;;;5045782;28;20063;-65
2023/08/23 00:38:22;;;;;;;6.13;3.60;;;14.30;99.90;;;;;;5036555;28;20041;-65
2023/08/23 00:40:47;;;;;;;5.65;3.28;;;14.20;99.90;;;;;;5043806;28;20485;-65
2023/08/23 00:43:13;;;;;;;4.35;3.40;;;14.20;99.90;;;;;;5035050;28;20426;-65
2023/08/23 00:45:41;;;;;;;3.97;3.33;;;14.20;99.90;;;;;;5047332;28;20037;-64
2023/08/23 00:48:08;;;;;;;5.10;3.42;;;14.20;99.90;;;;;;5044048;28;20041;-65
2023/08/23 00:50:34;;;;;;;5.15;3.20;;;14.20;99.90;;;;;;5042023;28;20033;-65
2023/08/23 00:53:02;;;;;;;4.82;2.90;;;14.20;99.90;;;;;;5030365;28;20174;-64
2023/08/23 00:55:28;;;;;;;6.65;3.60;;;14.10;99.90;;;;;;5031299;28;20052;-65
2023/08/23 00:57:54;;;;;;;4.68;2.95;;;14.00;99.90;;;;;;5049430;28;20033;-65
2023/08/23 01:00:20;;;;;;;3.90;3.10;;;14.00;99.90;;;;;;5046416;28;20151;-65
2023/08/23 01:02:46;;;;;;;3.60;3.00;;;13.80;99.90;;;;;;5030258;28;20338;-64
2023/08/23 01:05:12;;;;;;;5.95;3.88;;;13.70;99.90;;;;;;5030546;28;20131;-64
2023/08/23 01:07:49;;;;;;;6.53;3.80;;;13.70;99.90;;;;;;5051014;28;20049;-65
2023/08/23 01:10:29;;;;;;;4.75;3.42;;;13.70;99.90;;;;;;5036877;28;20041;-65
2023/08/23 01:13:09;;;;;;;4.95;2.90;;;13.70;99.90;;;;;;5029621;28;20052;-65
2023/08/23 01:15:35;;;;;;;4.30;3.63;;;13.60;99.90;;;;;;5048017;28;20420;-65
2023/08/23 01:18:02;;;;;;;8.60;3.70;;;13.50;99.90;;;;;;5041120;28;20396;-65
2023/08/23 01:20:28;;;;;;;25.25;4.10;;;13.40;99.90;;;;;;5031071;28;20037;-65
2023/08/23 01:23:08;;;;;;;6.57;3.95;;;13.30;99.90;;;;;;5028409;28;20475;-65
2023/08/23 01:25:33;;;;;;;6.00;4.10;;;13.20;99.90;;;;;;5039537;28;20505;-65
2023/08/23 01:27:59;;;;;;;3.50;2.80;;;13.30;99.90;;;;;;5021294;28;20152;-65
2023/08/23 01:30:25;;;;;;;3.22;2.80;;;13.20;99.90;;;;;;5031085;28;20045;-65
2023/08/23 01:32:54;;;;;;;4.35;2.60;;;13.20;99.90;;;;;;5046304;28;20139;-65
2023/08/23 01:35:28;;;;;;;4.05;3.28;;;13.10;99.90;;;;;;5040722;28;20052;-65
2023/08/23 01:37:57;;;;;;;7.38;3.92;;;13.10;99.90;;;;;;5036040;28;20504;-65
2023/08/23 01:40:23;;;;;;;7.43;4.20;;;13.10;99.90;;;;;;5030227;28;20090;-65
2023/08/23 01:42:49;;;;;;;5.80;3.90;;;13.10;99.90;;;;;;5035181;28;20354;-64
2023/08/23 01:45:15;;;;;;;5.72;3.58;;;13.00;99.90;;;;;;5041209;28;20041;-64
2023/08/23 01:47:41;;;;;;;5.07;3.60;;;13.10;99.90;;;;;;5036196;28;20040;-65
2023/08/23 01:50:07;;;;;;;5.03;3.53;;;13.00;99.90;;;;;;5038211;28;20361;-64
2023/08/23 01:52:32;;;;;;;5.88;3.38;;;13.10;99.90;;;;;;5030485;28;20087;-64
2023/08/23 01:54:58;;;;;;;4.68;4.03;;;13.10;99.90;;;;;;5042002;28;20088;-64
2023/08/23 01:57:23;;;;;;;4.60;3.28;;;13.10;99.90;;;;;;5041498;28;20056;-65
2023/08/23 01:59:50;;;;;;;5.88;3.80;;;13.10;99.90;;;;;;5031693;28;20090;-64
2023/08/23 02:02:16;;;;;;;7.35;4.10;;;13.10;99.90;;;;;;5035195;28;20037;-65
2023/08/23 02:04:41;;;;;;;4.32;3.25;;;13.10;99.90;;;;;;5032347;28;20149;-64
2023/08/23 02:07:07;;;;;;;5.00;3.53;;;13.00;99.90;;;;;;5039200;28;20029;-64
2023/08/23 02:09:33;;;;;;;6.93;4.15;;;13.10;99.90;;;;;;5037956;28;20068;-65
2023/08/23 02:11:59;;;;;;;6.13;3.35;;;13.00;99.90;;;;;;5044453;28;20067;-64
2023/08/23 02:14:25;;;;;;;4.43;3.20;;;13.00;99.90;;;;;;5030026;28;20049;-64
2023/08/23 02:16:50;;;;;;;4.07;2.95;;;12.90;99.90;;;;;;5047464;28;20488;-65
2023/08/23 02:19:16;;;;;;;5.60;3.83;;;12.90;99.90;;;;;;5039397;28;20120;-64
2023/08/23 02:21:41;;;;;;;5.40;3.10;;;12.80;99.90;;;;;;5034473;28;20072;-65
2023/08/23 02:24:07;;;;;;;2.78;2.30;;;12.80;99.90;;;;;;5031629;28;20047;-65
2023/08/23 02:26:35;;;;;;;4.30;2.88;;;12.80;99.90;;;;;;5040836;28;20049;-65
2023/08/23 02:29:01;;;;;;;3.08;2.78;;;12.80;99.90;;;;;;5037980;28;20052;-64
2023/08/23 02:31:26;;;;;;;3.20;2.90;;;12.80;99.90;;;;;;5041902;28;20047;-64
2023/08/23 02:33:52;;;;;;;4.65;3.15;;;12.70;99.90;;;;;;5042973;28;20037;-64
2023/08/23 02:36:17;;;;;;;10.13;3.35;;;12.80;99.90;;;;;;5047994;28;20113;-65
2023/08/23 02:38:43;;;;;;;13.05;3.90;;;12.70;99.90;;;;;;5035116;28;20714;-64
2023/08/23 02:41:09;;;;;;;8.60;3.40;;;12.70;99.90;;;;;;5044525;28;20534;-64
2023/08/23 02:43:35;;;;;;;31.27;3.85;;;12.70;99.90;;;;;;5041723;28;20033;-64
2023/08/23 02:46:01;;;;;;;7.47;3.00;;;12.70;99.90;;;;;;5034095;28;20038;-65
2023/08/23 02:48:26;;;;;;;9.27;3.55;;;12.70;99.90;;;;;;5033242;28;20595;-64
2023/08/23 02:50:52;;;;;;;8.45;3.40;;;12.70;99.90;;;;;;5037016;28;20527;-64
2023/08/23 02:53:18;;;;;;;4.35;3.42;;;12.70;99.90;;;;;;5028100;28;20053;-64
2023/08/23 02:55:43;;;;;;;3.47;3.03;;;12.70;99.90;;;;;;5046153;28;20049;-64
2023/08/23 02:58:09;;;;;;;4.00;3.08;;;12.70;99.90;;;;;;5037414;28;20114;-64
2023/08/23 03:00:34;;;;;;;4.10;3.20;;;12.70;99.90;;;;;;5030558;28;20496;-64
2023/08/23 03:03:00;;;;;;;4.95;3.20;;;12.80;99.90;;;;;;5038867;28;20295;-65
2023/08/23 03:05:25;;;;;;;9.55;4.43;;;12.80;99.90;;;;;;5047477;28;20042;-65
2023/08/23 03:07:51;;;;;;;6.15;3.83;;;12.90;99.90;;;;;;5044280;28;20345;-65
2023/08/23 03:10:17;;;;;;;5.95;4.70;;;13.00;99.90;;;;;;5043358;28;20043;-65
2023/08/23 03:12:42;;;;;;;5.93;4.80;;;13.10;99.90;;;;;;5048294;28;20045;-65
2023/08/23 03:15:08;;;;;;;12.95;5.95;;;13.20;99.90;;;;;;5031953;28;20038;-65
2023/08/23 03:17:34;;;;;;;8.23;5.63;;;13.50;99.90;;;;;;5048065;28;20046;-65
2023/08/23 03:19:59;;;;;;;8.45;5.82;;;13.50;99.90;;;;;;5035031;28;20029;-65
2023/08/23 03:22:25;;;;;;;9.50;6.57;;;13.50;99.90;;;;;;5034299;28;20036;-65
2023/08/23 03:24:51;;;;;;;8.20;6.05;;;13.60;99.90;;;;;;5037500;28;20041;-64
2023/08/23 03:27:18;;;;;;;8.20;6.45;;;13.60;99.90;;;;;;5034096;28;20049;-64
2023/08/23 03:29:47;;;;;;;9.98;7.05;;;13.50;99.90;;;;;;5039685;28;20369;-64
2023/08/23 03:32:13;;;;;;;11.50;6.72;;;13.60;99.90;;;;;;5044937;28;20041;-64
2023/08/23 03:34:39;;;;;;;11.57;7.38;;;13.70;99.90;;;;;;5046477;28;20041;-65
2023/08/23 03:37:05;;;;;;;12.18;8.15;;;13.90;99.90;;;;;;5043010;28;20049;-65
2023/08/23 03:39:30;;;;;;;10.77;7.60;;;13.90;99.90;;;;;;5031020;28;20038;-65
2023/08/23 03:41:56;;;;;;;10.52;6.85;;;13.90;99.90;;;;;;5030868;28;20110;-65
2023/08/23 03:44:21;;;;;;;9.27;7.03;;;13.90;99.90;;;;;;5045880;28;20075;-65
2023/08/23 03:46:47;;;;;;;10.82;6.93;;;14.00;99.90;;;;;;5042412;28;20037;-65
2023/08/23 03:49:12;;;;;;;10.27;7.03;;;14.10;99.90;;;;;;5039113;28;20529;-65
2023/08/23 03:51:38;;;;;;;10.45;8.27;;;14.10;99.90;;;;;;5045777;28;20094;-65
2023/08/23 03:54:04;;;;;;;13.20;7.95;;;14.20;99.90;;;;;;5034885;28;20053;-65
2023/08/23 03:56:29;;;;;;;11.65;8.18;;;14.30;99.90;;;;;;5021053;28;20041;-65
2023/08/23 03:58:57;;;;;;;11.00;7.97;;;14.40;99.90;;;;;;5039626;28;20123;-64
2023/08/23 04:01:22;;;;;;;13.50;7.90;;;14.40;99.90;;;;;;5036165;28;20045;-65
2023/08/23 04:03:48;;;;;;;13.13;8.05;;;14.40;99.90;;;;;;5043156;28;20085;-65
2023/08/23 04:06:13;;;;;;;13.38;9.00;;;14.40;99.90;;;;;;5044561;28;20421;-65
2023/08/23 04:08:39;;;;;;;14.15;9.45;;;14.50;99.90;;;;;;5046604;28;20041;-66
2023/08/23 04:11:04;;;;;;;13.63;8.73;;;14.60;99.90;;;;;;5052378;28;20033;-65
2023/08/23 04:13:30;;;;;;;12.65;8.95;;;14.60;99.90;;;;;;5037300;28;20072;-65
2023/08/23 04:15:56;;;;;;;14.88;9.55;;;14.60;99.90;;;;;;5044226;28;20159;-65
2023/08/23 04:18:21;;;;;;;15.80;9.73;;;14.60;99.90;;;;;;5032683;28;20037;-65
2023/08/23 04:20:57;;;;;;;15.52;10.27;;;14.70;99.90;;;;;;5033057;28;20050;-66
2023/08/23 04:23:22;;;;;;;16.90;10.45;;;14.70;99.90;;;;;;5042645;28;20038;-65
2023/08/23 04:25:48;;;;;;;19.25;12.45;;;14.70;99.90;;;;;;5033733;28;20064;-65
2023/08/23 04:28:13;;;;;;;19.63;11.55;;;14.70;99.90;;;;;;5041413;28;20403;-65
2023/08/23 04:30:42;;;;;;;23.58;12.52;;;14.70;99.90;;;;;;5040601;28;20045;-65
2023/08/23 04:33:08;;;;;;;19.58;11.95;;;14.80;99.90;;;;;;5050276;28;20727;-65
2023/08/23 04:35:33;;;;;;;32.97;13.10;;;14.80;99.90;;;;;;5046738;28;20132;-65
2023/08/23 04:37:59;;;;;;;31.88;13.07;;;14.80;99.90;;;;;;5035112;28;20040;-65
2023/08/23 04:40:24;;;;;;;21.27;12.68;;;14.90;99.90;;;;;;5042060;28;20049;-64
2023/08/23 04:42:50;;;;;;;17.80;11.73;;;14.90;99.90;;;;;;5046718;28;20056;-65
2023/08/23 04:45:15;;;;;;;15.60;10.68;;;14.90;99.90;;;;;;5045672;28;20039;-65
2023/08/23 04:47:41;;;;;;;33.88;12.52;;;15.00;99.90;;;;;;5033587;28;20147;-65
2023/08/23 04:50:07;;;;;;;18.92;11.55;;;15.00;99.90;;;;;;5030229;28;20388;-65
2023/08/23 04:52:32;;;;;;;20.52;11.82;;;15.00;99.90;;;;;;5045867;28;20718;-65
2023/08/23 04:54:58;;;;;;;19.10;11.10;;;15.00;99.90;;;;;;5043651;28;20048;-65
2023/08/23 04:57:23;;;;;;;19.30;11.07;;;15.00;99.90;;;;;;5030925;28;20037;-64
2023/08/23 04:59:49;;;;;;;27.05;12.85;;;15.00;99.90;;;;;;5040565;28;20327;-65
2023/08/23 05:02:15;;;;;;;26.45;12.68;;;15.10;99.90;;;;;;5028631;28;20052;-64
2023/08/23 05:04:40;;;;;;;25.73;12.48;;;15.10;99.90;;;;;;5029797;28;20037;-65
2023/08/23 05:07:06;;;;;;;24.08;12.90;;;15.10;99.90;;;;;;5029020;28;20396;-64
2023/08/23 05:09:31;;;;;;;21.58;13.77;;;15.20;99.90;;;;;;5035251;28;20120;-64
2023/08/23 05:11:57;;;;;;;22.55;13.23;;;15.20;99.90;;;;;;5035556;28;20116;-65
2023/08/23 05:14:23;;;;;;;28.92;14.10;;;15.20;99.90;;;;;;5039230;28;20375;-65
2023/08/23 05:16:48;;;;;;;19.95;13.32;;;15.20;99.90;;;;;;5028807;28;20041;-65
2023/08/23 05:19:14;;;;;;;28.02;14.98;;;15.30;99.90;;;;;;5033400;28;20422;-65
2023/08/23 05:21:39;;;;;;;22.92;13.98;;;15.30;99.90;;;;;;5031246;28;20037;-65
2023/08/23 05:24:05;;;;;;;30.38;15.52;;;15.30;99.90;;;;;;5032458;28;20033;-65
2023/08/23 05:26:30;;;;;;;24.90;15.10;;;15.40;99.90;;;;;;5041519;28;20621;-65
2023/08/23 05:28:56;;;;;;;27.17;16.38;;;15.40;99.90;;;;;;5029959;28;20055;-65
2023/08/23 05:31:22;;;;;;;25.88;15.63;;;15.40;99.90;;;;;;5027823;28;20037;-65
2023/08/23 05:33:47;;;;;;;28.80;17.10;;;15.50;99.90;;;;;;5044145;28;20037;-65
2023/08/23 05:36:13;;;;;;;24.65;15.82;;;15.60;99.90;;;;;;5031042;28;20037;-65
2023/08/23 05:38:38;;;;;;;25.00;16.10;;;15.60;99.90;;;;;;5038036;28;20106;-65
2023/08/23 05:41:04;;;;;;;24.40;14.70;;;15.70;99.90;;;;;;5044019;28;20515;-65
2023/08/23 05:43:29;;;;;;;30.42;17.15;;;15.70;99.90;;;;;;5027422;28;20913;-66
2023/08/23 05:45:56;;;;;;;22.85;15.68;;;15.70;99.90;;;;;;5037530;28;20424;-65
2023/08/23 05:48:22;;;;;;;23.25;15.63;;;15.80;99.90;;;;;;5047514;28;20193;-65
2023/08/23 05:50:48;;;;;;;23.73;15.73;;;15.80;99.90;;;;;;5040910;28;20041;-65
2023/08/23 05:53:23;;;;;;;25.30;15.98;;;15.90;99.90;;;;;;5039959;28;20091;-65
2023/08/23 05:55:49;;;;;;;26.52;16.27;;;15.80;99.90;;;;;;5039420;28;20114;-65
2023/08/23 05:58:19;;;;;;;23.63;15.05;;;15.80;99.90;;;;;;5043184;28;20060;-66
2023/08/23 06:00:46;;;;;;;22.52;15.13;;;15.80;99.90;;;;;;5039450;28;20064;-65
2023/08/23 06:03:14;;;;;;;24.17;14.43;;;15.80;99.90;;;;;;5030988;28;20075;-65
2023/08/23 06:05:41;;;;;;;20.20;13.68;;;15.80;99.90;;;;;;5033631;28;20473;-65
2023/08/23 06:08:07;;;;;;;23.00;14.32;;;15.70;99.90;;;;;;5040018;28;20041;-65
2023/08/23 06:10:32;;;;;;;23.60;14.10;;;15.70;99.90;;;;;;5048164;28;20048;-65
2023/08/23 06:12:58;;;;;;;20.67;13.98;;;15.60;99.90;;;;;;5034374;28;20041;-65
2023/08/23 06:15:24;;;;;;;20.17;13.77;;;15.60;99.90;;;;;;5025522;28;20358;-65
2023/08/23 06:17:49;;;;;;;24.67;15.35;;;15.60;99.90;;;;;;5036881;28;20068;-67
2023/08/23 06:20:16;;;;;;;21.83;14.23;;;15.80;99.90;;;;;;5029095;28;20106;-65
2023/08/23 06:22:43;;;;;;;22.38;14.65;;;15.90;99.90;;;;;;5039699;28;20088;-65
2023/08/23 06:25:09;;;;;;;19.10;13.45;;;16.10;99.90;;;;;;5037597;28;20051;-66
2023/08/23 06:27:35;;;;;;;20.63;14.30;;;16.20;99.90;;;;;;5034518;28;20033;-65
2023/08/23 06:30:02;;;;;;;20.08;14.15;;;16.30;99.90;;;;;;5029822;28;20029;-65
2023/08/23 06:32:28;;;;;;;20.77;14.88;;;16.50;99.90;;;;;;5036727;28;20098;-65
2023/08/23 06:34:53;;;;;;;19.33;14.05;;;16.60;99.90;;;;;;5041110;28;20045;-65
2023/08/23 06:37:19;;;;;;;21.77;14.13;;;16.70;99.90;;;;;;5039541;28;20049;-65
2023/08/23 06:39:44;;;;;;;19.80;13.07;;;16.80;99.90;;;;;;5039454;28;20061;-66
2023/08/23 06:42:10;;;;;;;20.70;13.88;;;17.00;99.90;;;;;;5046328;28;20052;-66
2023/08/23 06:44:35;;;;;;;20.77;14.02;;;17.10;99.90;;;;;;5036654;28;20094;-66
2023/08/23 06:47:01;;;;;;;19.17;13.57;;;17.20;99.90;;;;;;5040570;28;20139;-66
2023/08/23 06:49:27;;;;;;;19.83;13.35;;;17.30;99.90;;;;;;5044618;28;20052;-66
2023/08/23 06:51:52;;;;;;;22.83;14.02;;;17.30;99.90;;;;;;5031955;28;20129;-66
2023/08/23 06:54:18;;;;;;;19.67;13.75;;;17.40;99.90;;;;;;5033522;28;20068;-66
2023/08/23 06:56:47;;;;;;;20.35;13.23;;;17.50;99.90;;;;;;5031385;28;20579;-65
2023/08/23 06:59:13;;;;;;;18.55;13.18;;;17.50;99.90;;;;;;5047646;28;20036;-66
2023/08/23 07:01:38;;;;;;;22.23;13.65;;;17.60;99.90;;;;;;5041770;28;20033;-66
2023/08/23 07:04:04;;;;;;;24.50;14.52;;;17.80;99.90;;;;;;5028988;28;20040;-66
2023/08/23 07:06:31;;;;;;;21.17;13.98;;;17.90;99.90;;;;;;5042454;28;20129;-65
2023/08/23 07:08:56;;;;;;;20.17;13.13;;;18.10;99.90;;;;;;5030018;28;20045;-65
2023/08/23 07:11:22;;;;;;;17.02;12.80;;;18.40;99.90;;;;;;5036224;28;20155;-65
2023/08/23 07:13:48;;;;;;;18.67;11.38;;;18.70;99.90;;;;;;5035314;28;20453;-66
2023/08/23 07:16:13;;;;;;;18.65;12.50;;;19.10;99.90;;;;;;5052522;28;20102;-66
2023/08/23 07:18:39;;;;;;;18.23;11.85;;;19.30;99.90;;;;;;5035239;28;20142;-65
2023/08/23 07:21:04;;;;;;;18.17;10.80;;;19.60;99.90;;;;;;5034214;28;20033;-66
2023/08/23 07:23:30;;;;;;;16.70;10.82;;;19.80;99.90;;;;;;5037514;28;20115;-66
2023/08/23 07:25:55;;;;;;;14.60;11.18;;;19.60;99.90;;;;;;5052326;28;20049;-66
2023/08/23 07:28:21;;;;;;;13.15;9.40;;;19.80;99.90;;;;;;5045332;28;20043;-66
2023/08/23 07:30:49;;;;;;;15.38;10.35;;;20.10;99.90;;;;;;5047833;28;20045;-66
2023/08/23 07:33:15;;;;;;;15.60;10.63;;;20.30;99.90;;;;;;5039870;28;20045;-66
2023/08/23 07:35:41;;;;;;;13.82;9.75;;;20.40;99.90;;;;;;5034393;28;20088;-66
2023/08/23 07:38:07;;;;;;;16.88;11.02;;;20.40;99.90;;;;;;5040734;28;22393;-66
2023/08/23 07:40:36;;;;;;;15.52;9.60;;;20.70;99.90;;;;;;5043451;28;20037;-66
2023/08/23 07:43:02;;;;;;;12.73;9.75;;;21.10;99.90;;;;;;5050755;28;20145;-66
2023/08/23 07:45:27;;;;;;;16.02;9.00;;;21.40;99.90;;;;;;5052803;28;20423;-67
2023/08/23 07:47:53;;;;;;;11.18;8.13;;;21.70;99.90;;;;;;5032109;28;20045;-67
2023/08/23 07:50:18;;;;;;;11.13;7.75;;;21.80;99.90;;;;;;5040880;28;20029;-66
2023/08/23 07:52:44;;;;;;;10.50;7.63;;;21.80;99.30;;;;;;5037511;28;20171;-67
2023/08/23 07:55:10;;;;;;;8.48;6.78;;;21.90;98.80;;;;;;5050059;28;20041;-67
2023/08/23 07:57:35;;;;;;;9.13;6.47;;;22.20;97.60;;;;;;5039068;28;20041;-67
2023/08/23 08:00:01;;;;;;;8.27;6.20;;;22.50;96.30;;;;;;5040638;28;20449;-68
2023/08/23 08:02:29;;;;;;;8.07;5.50;;;22.70;95.40;;;;;;5038391;28;20533;-67
2023/08/23 08:04:55;;;;;;;6.55;4.57;;;22.80;93.70;;;;;;5034491;28;20051;-68
2023/08/23 08:07:20;;;;;;;5.93;4.00;;;22.90;92.40;;;;;;5045093;28;20971;-68
2023/08/23 08:09:46;;;;;;;6.22;4.97;;;23.00;91.40;;;;;;5035999;28;20162;-67
2023/08/23 08:12:12;;;;;;;7.55;4.85;;;23.20;89.50;;;;;;5033492;28;20116;-67
2023/08/23 08:14:38;;;;;;;6.10;4.78;;;23.60;88.50;;;;;;5047605;28;20082;-67
2023/08/23 08:17:03;;;;;;;5.90;4.22;;;23.70;85.90;;;;;;5031782;28;20049;-67
2023/08/23 08:19:29;;;;;;;7.07;4.50;;;23.80;82.90;;;;;;5050443;28;20067;-66
2023/08/23 08:21:54;;;;;;;7.28;4.00;;;24.00;82.20;;;;;;5049128;28;20501;-66
2023/08/23 08:24:20;;;;;;;5.05;4.15;;;24.00;81.00;;;;;;5030664;28;20038;-67
2023/08/23 08:26:45;;;;;;;6.47;3.90;;;23.70;80.80;;;;;;5051254;28;20052;-68
2023/08/23 08:29:11;;;;;;;5.53;3.55;;;24.00;79.70;;;;;;5035409;28;20455;-67
2023/08/23 08:31:39;;;;;;;7.05;3.72;;;24.30;78.70;;;;;;5030274;28;20481;-67
2023/08/23 08:34:06;;;;;;;3.78;3.10;;;24.10;76.40;;;;;;5038227;28;20400;-67
2023/08/23 08:36:31;;;;;;;5.10;3.33;;;24.40;74.90;;;;;;5041271;28;20041;-67
2023/08/23 08:38:57;;;;;;;4.28;2.72;;;24.90;73.70;;;;;;5035486;28;20056;-68
2023/08/23 08:41:22;;;;;;;6.20;3.42;;;24.90;73.60;;;;;;5030441;28;20067;-67
2023/08/23 08:43:49;;;;;;;4.05;3.30;;;24.80;73.80;;;;;;5046254;28;20045;-67
2023/08/23 08:46:15;;;;;;;5.38;3.45;;;24.70;73.60;;;;;;5041084;28;20557;-68
2023/08/23 08:48:40;;;;;;;5.75;3.67;;;25.20;71.20;;;;;;5046437;28;20040;-70
2023/08/23 08:51:10;;;;;;;5.05;2.90;;;25.50;70.50;;;;;;5049370;28;20114;-69
2023/08/23 08:53:36;;;;;;;7.47;2.90;;;26.00;68.50;;;;;;5048290;28;20044;-67
2023/08/23 08:56:03;;;;;;;4.93;2.80;;;26.20;67.80;;;;;;5030642;28;20168;-67
2023/08/23 08:58:30;;;;;;;3.75;2.80;;;26.40;67.30;;;;;;5036706;28;20120;-68
2023/08/23 09:01:00;;;;;;;4.15;2.20;;;26.50;65.90;;;;;;5044704;28;20033;-67
2023/08/23 09:03:26;;;;;;;3.75;1.95;;;26.30;64.70;;;;;;5045469;28;20076;-68
2023/08/23 09:05:52;;;;;;;3.95;2.35;;;26.00;66.10;;;;;;5040681;28;20101;-68
2023/08/23 09:08:18;;;;;;;2.47;1.67;;;26.30;64.60;;;;;;5047178;28;20060;-68
2023/08/23 09:10:44;;;;;;;2.75;1.58;;;26.50;64.20;;;;;;5045269;28;20048;-68
2023/08/23 09:13:10;;;;;;;2.20;1.20;;;26.80;63.20;;;;;;5049307;28;20045;-68
2023/08/23 09:15:35;;;;;;;2.13;1.67;;;26.80;62.10;;;;;;5035747;28;20038;-68
2023/08/23 09:18:01;;;;;;;4.88;1.95;;;26.80;62.00;;;;;;5027626;28;20038;-68
2023/08/23 09:20:26;;;;;;;2.50;1.40;;;26.50;62.20;;;;;;5033633;28;20418;-68
2023/08/23 09:22:53;;;;;;;2.28;1.42;;;26.10;62.40;;;;;;5045405;28;20417;-68
2023/08/23 09:25:20;;;;;;;2.22;1.20;;;25.90;62.10;;;;;;5038963;28;20037;-68
2023/08/23 09:27:46;;;;;;;1.92;1.05;;;25.60;62.50;;;;;;5045252;28;20040;-68
2023/08/23 09:30:12;;;;;;;2.65;1.30;;;25.50;63.20;;;;;;5048556;28;20163;-67
2023/08/23 09:32:37;;;;;;;3.97;1.42;;;25.20;63.40;;;;;;5027462;28;20033;-67
2023/08/23 09:35:13;;;;;;;2.10;1.40;;;25.00;63.20;;;;;;5033659;28;20461;-68
2023/08/23 09:37:43;;;;;;;2.30;1.33;;;24.90;62.60;;;;;;5047957;28;20128;-67
2023/08/23 09:40:23;;;;;;;;;;;25.00;62.50;;;;;;5049016;28;20052;-67
2023/08/23 09:42:53;;;;;;;2.38;1.42;;;25.00;62.70;;;;;;5038251;28;20371;-66
2023/08/23 09:45:19;;;;;;;;;;;25.10;61.60;;;;;;5039222;28;20041;-67
2023/08/23 09:47:55;;;;;;;3.45;1.20;;;25.10;60.60;;;;;;5030152;28;19955;-69
2023/08/23 09:50:23;;;;;;;2.40;1.13;;;25.00;60.90;;;;;;5047272;28;20056;-69
2023/08/23 09:52:53;;;;;;;1.75;0.90;;;25.00;62.20;;;;;;5042147;28;20080;-68
2023/08/23 09:55:20;;;;;;;2.47;1.30;;;24.90;61.30;;;;;;5038224;28;20059;-68
2023/08/23 09:57:46;;;;;;;2.70;1.33;;;25.00;61.20;;;;;;5032878;28;20099;-68
2023/08/23 10:00:13;;;;;;;2.67;1.10;;;25.00;60.90;;;;;;5029894;28;20038;-68
2023/08/23 10:02:40;;;;;;;3.58;1.20;;;25.00;60.80;;;;;;5032071;28;20067;-68
2023/08/23 10:05:08;;;;;;;2.95;1.55;;;25.00;61.60;;;;;;5031677;28;20081;-68
2023/08/23 10:07:35;;;;;;;1.83;1.48;;;25.10;61.00;;;;;;5030047;28;20470;-68
2023/08/23 10:10:03;;;;;;;3.53;1.40;;;25.20;60.40;;;;;;5040466;28;20484;-69
2023/08/23 10:12:29;;;;;;;2.88;1.65;;;25.60;60.20;;;;;;5030894;28;20079;-68
2023/08/23 10:14:57;;;;;;;6.00;1.52;;;25.90;59.40;;;;;;5032402;28;20151;-67
2023/08/23 10:17:24;;;;;;;2.35;1.20;;;26.00;59.20;;;;;;5035673;28;20155;-68
2023/08/23 10:19:50;;;;;;;3.60;1.50;;;26.00;59.10;;;;;;5042521;28;20125;-68
2023/08/23 10:22:19;;;;;;;5.65;1.20;;;26.10;58.70;;;;;;5042926;28;20040;-68
2023/08/23 10:24:47;;;;;;;1.90;1.20;;;26.50;57.70;;;;;;5031943;28;20460;-69
2023/08/23 10:27:13;;;;;;;2.85;1.50;;;26.00;57.50;;;;;;5032047;28;20160;-68
2023/08/23 10:29:38;;;;;;;2.83;1.10;;;26.00;57.30;;;;;;5027231;28;20052;-69
2023/08/23 10:32:08;;;;;;;4.18;1.40;;;25.90;57.40;;;;;;5031551;28;20851;-69
2023/08/23 10:34:38;;;;;;;3.10;1.30;;;25.70;57.30;;;;;;5049557;28;20389;-69
2023/08/23 10:37:14;;;;;;;;;;;25.80;58.00;;;;;;5039083;28;20064;-67
2023/08/23 10:39:53;;;;;;;4.63;1.52;;;25.60;58.20;;;;;;5043102;28;19917;-68
2023/08/23 10:42:21;;;;;;;3.30;1.33;;;25.80;58.40;;;;;;5056476;28;20132;-69
2023/08/23 10:44:59;;;;;;;5.25;1.70;;;25.40;58.50;;;;;;5047052;28;20096;-68
2023/08/23 10:47:25;;;;;;;2.20;1.40;;;25.30;58.90;;;;;;5043050;28;20055;-69
2023/08/23 10:49:51;;;;;;;4.35;1.50;;;25.40;59.40;;;;;;5035348;28;20045;-70
2023/08/23 10:52:17;;;;;;;4.40;1.92;;;25.60;59.50;;;;;;5053355;28;20063;-70
2023/08/23 10:54:43;;;;;;;3.25;1.80;;;25.80;58.70;;;;;;5051207;28;20076;-68
2023/08/23 10:57:09;;;;;;;4.45;2.00;;;25.70;58.80;;;;;;5047285;28;20445;-69
2023/08/23 10:59:35;;;;;;;3.97;1.73;;;25.50;58.20;;;;;;5022632;28;20116;-68
2023/08/23 11:02:01;;;;;;;4.85;2.17;;;25.50;58.40;;;;;;5041689;28;20134;-67
2023/08/23 11:04:26;;;;;;;4.07;1.70;;;25.40;58.20;;;;;;5059688;28;20033;-68
2023/08/23 11:06:52;;;;;;;3.75;2.20;;;25.70;58.30;;;;;;5045126;28;20033;-70
2023/08/23 11:09:18;;;;;;;3.00;1.70;;;25.90;58.30;;;;;;5039350;28;20052;-69
2023/08/23 11:11:44;;;;;;;4.70;2.35;;;25.90;58.30;;;;;;5044917;28;20048;-67
2023/08/23 11:14:10;;;;;;;3.92;1.80;;;25.70;58.30;;;;;;5042806;28;20497;-67
2023/08/23 11:16:38;;;;;;;3.03;1.98;;;25.50;58.50;;;;;;5034504;28;20553;-69
2023/08/23 11:19:07;;;;;;;3.78;1.90;;;25.50;58.70;;;;;;5041443;28;20033;-69
2023/08/23 11:21:33;;;;;;;5.30;1.60;;;25.30;58.90;;;;;;5044462;28;20052;-68
2023/08/23 11:24:06;;;;;;;3.58;1.77;;;25.30;58.80;;;;;;5035178;28;20124;-68
2023/08/23 11:26:37;;;;;;;3.95;2.10;;;25.30;59.20;;;;;;5044649;28;20033;-68
2023/08/23 11:29:05;;;;;;;4.38;2.20;;;25.10;59.50;;;;;;5048406;28;20041;-68
2023/08/23 11:31:35;;;;;;;4.57;2.47;;;25.20;59.60;;;;;;5050224;28;20055;-69
2023/08/23 11:34:06;;;;;;;5.47;2.13;;;25.10;59.40;;;;;;5026293;28;20036;-68
2023/08/23 11:36:32;;;;;;;4.22;2.30;;;25.20;59.70;;;;;;5041339;28;20533;-67
2023/08/23 11:39:04;;;;;;;5.25;2.20;;;25.30;59.50;;;;;;5045575;28;20037;-67
2023/08/23 11:41:33;;;;;;;4.35;2.10;;;25.40;58.80;;;;;;5049663;28;20469;-68
2023/08/23 11:44:03;;;;;;;3.60;2.30;;;25.50;59.00;;;;;;5049268;28;20041;-68
2023/08/23 11:46:28;;;;;;;;;;;25.60;58.40;;;;;;5035761;28;20042;-67
2023/08/23 11:48:54;;;;;;;3.85;2.05;;;25.70;58.30;;;;;;5049115;28;19947;-69
2023/08/23 11:51:20;;;;;;;6.90;2.15;;;25.80;57.90;;;;;;5051001;28;20729;-69
2023/08/23 11:53:55;;;;;;;4.10;1.70;;;26.00;57.70;;;;;;5031083;28;20110;-68
2023/08/23 11:56:21;;;;;;;4.38;1.88;;;26.00;57.40;;;;;;5041107;28;20119;-68
2023/08/23 11:58:47;;;;;;;3.92;2.03;;;26.10;57.50;;;;;;5032734;28;20046;-68
2023/08/23 12:01:13;;;;;;;4.47;2.10;;;26.00;57.00;;;;;;5043267;28;20044;-71
2023/08/23 12:03:39;;;;;;;4.95;2.20;;;25.90;57.20;;;;;;5050340;28;20037;-68
2023/08/23 12:06:04;;;;;;;4.28;1.80;;;26.20;57.20;;;;;;5040455;28;20045;-70
2023/08/23 12:08:30;;;;;;;5.05;2.00;;;26.40;57.00;;;;;;5046964;28;20128;-68
2023/08/23 12:10:56;;;;;;;2.13;1.30;;;26.10;56.60;;;;;;5035667;28;20045;-68
2023/08/23 12:13:21;;;;;;;3.00;1.48;;;26.10;55.90;;;;;;5033138;28;20243;-67
2023/08/23 12:15:47;;;;;;;3.33;1.65;;;26.10;55.90;;;;;;5030857;28;20111;-69
2023/08/23 12:18:12;;;;;;;3.15;1.60;;;26.00;55.20;;;;;;5032139;28;20037;-69
2023/08/23 12:20:38;;;;;;;4.47;1.50;;;25.90;55.50;;;;;;5036261;28;20052;-69
2023/08/23 12:23:04;;;;;;;2.80;1.33;;;25.90;54.80;;;;;;5032097;28;20033;-69
2023/08/23 12:25:29;;;;;;;2.75;1.35;;;25.80;54.60;;;;;;5042159;28;20036;-70
2023/08/23 12:27:55;;;;;;;4.18;1.48;;;25.60;54.40;;;;;;5047556;28;20037;-69
2023/08/23 12:30:20;;;;;;;1.70;1.13;;;25.70;54.30;;;;;;5048081;28;20044;-68
2023/08/23 12:32:46;;;;;;;1.33;1.00;;;25.90;53.80;;;;;;5042340;28;20037;-68
2023/08/23 12:35:12;;;;;;;1.85;1.33;;;26.10;53.40;;;;;;5030615;28;20045;-68
2023/08/23 12:37:38;;;;;;;3.15;1.67;;;26.30;53.20;;;;;;5041890;28;20330;-69